sensor_id;sensor_type;location;lat;lon;timestamp;P1;durP1;ratioP1;P2;durP2;ratioP2
67585;SDS011;55785;47.946;20.540;2024-01-30T00:01:23;6.63;;;3.43;;
67585;SDS011;55785;47.946;20.540;2024-01-30T00:03:48;10.80;;;5.10;;
67585;SDS011;55785;47.946;20.540;2024-01-30T00:06:13;7.93;;;4.73;;
67585;SDS011;55785;47.946;20.540;2024-01-30T00:08:39;6.03;;;3.83;;
67585;SDS011;55785;47.946;20.540;2024-01-30T00:11:04;3.20;;;2.10;;
67585;SDS011;55785;47.946;20.540;2024-01-30T00:13:29;6.00;;;3.97;;
67585;SDS011;55785;47.946;20.540;2024-01-30T00:15:55;5.03;;;3.43;;
67585;SDS011;55785;47.946;20.540;2024-01-30T00:18:20;3.27;;;2.63;;
67585;SDS011;55785;47.946;20.540;2024-01-30T00:20:45;5.97;;;2.40;;
67585;SDS011;55785;47.946;20.540;2024-01-30T00:23:11;2.63;;;1.80;;
67585;SDS011;55785;47.946;20.540;2024-01-30T00:25:36;5.40;;;3.43;;
67585;SDS011;55785;47.946;20.540;2024-01-30T00:28:01;6.60;;;3.17;;
67585;SDS011;55785;47.946;20.540;2024-01-30T00:30:27;2.93;;;2.50;;
67585;SDS011;55785;47.946;20.540;2024-01-30T00:32:53;5.77;;;2.50;;
67585;SDS011;55785;47.946;20.540;2024-01-30T00:35:18;3.87;;;2.53;;
67585;SDS011;55785;47.946;20.540;2024-01-30T00:37:43;1.87;;;1.67;;
67585;SDS011;55785;47.946;20.540;2024-01-30T00:40:09;5.37;;;2.50;;
67585;SDS011;55785;47.946;20.540;2024-01-30T00:42:35;6.10;;;2.77;;
67585;SDS011;55785;47.946;20.540;2024-01-30T00:45:00;2.40;;;2.20;;
67585;SDS011;55785;47.946;20.540;2024-01-30T00:47:25;2.43;;;1.70;;
67585;SDS011;55785;47.946;20.540;2024-01-30T00:49:51;4.13;;;2.43;;
67585;SDS011;55785;47.946;20.540;2024-01-30T00:52:16;3.80;;;1.80;;
67585;SDS011;55785;47.946;20.540;2024-01-30T00:54:41;1.70;;;1.53;;
67585;SDS011;55785;47.946;20.540;2024-01-30T00:57:07;3.33;;;1.80;;
67585;SDS011;55785;47.946;20.540;2024-01-30T00:59:32;4.80;;;2.47;;
67585;SDS011;55785;47.946;20.540;2024-01-30T01:01:58;2.53;;;1.57;;
67585;SDS011;55785;47.946;20.540;2024-01-30T01:04:23;2.20;;;1.47;;
67585;SDS011;55785;47.946;20.540;2024-01-30T01:06:48;1.73;;;1.63;;
67585;SDS011;55785;47.946;20.540;2024-01-30T01:09:14;2.07;;;1.43;;
67585;SDS011;55785;47.946;20.540;2024-01-30T01:11:39;2.30;;;1.33;;
67585;SDS011;55785;47.946;20.540;2024-01-30T01:14:04;2.67;;;1.90;;
67585;SDS011;55785;47.946;20.540;2024-01-30T01:16:30;1.83;;;1.63;;
67585;SDS011;55785;47.946;20.540;2024-01-30T01:18:55;5.13;;;1.07;;
67585;SDS011;55785;47.946;20.540;2024-01-30T01:21:21;3.70;;;2.00;;
67585;SDS011;55785;47.946;20.540;2024-01-30T01:23:46;2.07;;;1.87;;
67585;SDS011;55785;47.946;20.540;2024-01-30T01:26:11;2.43;;;1.80;;
67585;SDS011;55785;47.946;20.540;2024-01-30T01:28:37;2.07;;;1.33;;
67585;SDS011;55785;47.946;20.540;2024-01-30T01:31:05;2.33;;;2.07;;
67585;SDS011;55785;47.946;20.540;2024-01-30T01:33:31;4.97;;;1.43;;
67585;SDS011;55785;47.946;20.540;2024-01-30T01:35:57;1.63;;;1.10;;
67585;SDS011;55785;47.946;20.540;2024-01-30T01:38:22;2.30;;;1.80;;
67585;SDS011;55785;47.946;20.540;2024-01-30T01:40:48;1.80;;;1.33;;
67585;SDS011;55785;47.946;20.540;2024-01-30T01:43:13;2.00;;;1.57;;
67585;SDS011;55785;47.946;20.540;2024-01-30T01:45:38;1.70;;;1.03;;
67585;SDS011;55785;47.946;20.540;2024-01-30T01:48:04;2.03;;;1.07;;
67585;SDS011;55785;47.946;20.540;2024-01-30T01:50:29;1.90;;;1.50;;
67585;SDS011;55785;47.946;20.540;2024-01-30T01:52:55;1.60;;;1.27;;
67585;SDS011;55785;47.946;20.540;2024-01-30T01:55:21;3.13;;;1.93;;
67585;SDS011;55785;47.946;20.540;2024-01-30T01:57:47;1.57;;;1.03;;
67585;SDS011;55785;47.946;20.540;2024-01-30T02:00:12;1.87;;;1.60;;
67585;SDS011;55785;47.946;20.540;2024-01-30T02:02:39;1.77;;;0.93;;
67585;SDS011;55785;47.946;20.540;2024-01-30T02:05:04;2.47;;;2.13;;
67585;SDS011;55785;47.946;20.540;2024-01-30T02:07:30;1.80;;;1.13;;
67585;SDS011;55785;47.946;20.540;2024-01-30T02:09:55;1.47;;;1.17;;
67585;SDS011;55785;47.946;20.540;2024-01-30T02:12:21;2.63;;;1.83;;
67585;SDS011;55785;47.946;20.540;2024-01-30T02:14:47;5.17;;;1.57;;
67585;SDS011;55785;47.946;20.540;2024-01-30T02:17:13;3.03;;;1.40;;
67585;SDS011;55785;47.946;20.540;2024-01-30T02:19:39;2.70;;;1.33;;
67585;SDS011;55785;47.946;20.540;2024-01-30T02:22:04;1.90;;;1.43;;
67585;SDS011;55785;47.946;20.540;2024-01-30T02:24:30;2.37;;;1.50;;
67585;SDS011;55785;47.946;20.540;2024-01-30T02:26:55;3.13;;;1.73;;
67585;SDS011;55785;47.946;20.540;2024-01-30T02:29:21;1.20;;;1.03;;
67585;SDS011;55785;47.946;20.540;2024-01-30T02:31:46;1.43;;;1.10;;
67585;SDS011;55785;47.946;20.540;2024-01-30T02:34:12;3.07;;;1.60;;
67585;SDS011;55785;47.946;20.540;2024-01-30T02:36:38;2.73;;;1.47;;
67585;SDS011;55785;47.946;20.540;2024-01-30T02:39:03;2.53;;;1.47;;
67585;SDS011;55785;47.946;20.540;2024-01-30T02:41:29;1.27;;;1.10;;
67585;SDS011;55785;47.946;20.540;2024-01-30T02:43:54;3.37;;;1.70;;
67585;SDS011;55785;47.946;20.540;2024-01-30T02:46:19;1.80;;;1.53;;
67585;SDS011;55785;47.946;20.540;2024-01-30T02:48:45;11.93;;;1.20;;
67585;SDS011;55785;47.946;20.540;2024-01-30T02:51:10;1.73;;;1.30;;
67585;SDS011;55785;47.946;20.540;2024-01-30T02:53:35;1.37;;;1.10;;
67585;SDS011;55785;47.946;20.540;2024-01-30T02:56:02;1.43;;;1.23;;
67585;SDS011;55785;47.946;20.540;2024-01-30T02:58:27;1.10;;;1.00;;
67585;SDS011;55785;47.946;20.540;2024-01-30T03:00:53;1.47;;;1.00;;
67585;SDS011;55785;47.946;20.540;2024-01-30T03:03:18;1.13;;;1.03;;
67585;SDS011;55785;47.946;20.540;2024-01-30T03:05:44;2.07;;;1.47;;
67585;SDS011;55785;47.946;20.540;2024-01-30T03:08:09;1.37;;;1.13;;
67585;SDS011;55785;47.946;20.540;2024-01-30T03:10:34;3.30;;;2.77;;
67585;SDS011;55785;47.946;20.540;2024-01-30T03:13:00;3.90;;;2.87;;
67585;SDS011;55785;47.946;20.540;2024-01-30T03:15:25;5.77;;;3.37;;
67585;SDS011;55785;47.946;20.540;2024-01-30T03:17:50;7.73;;;4.40;;
67585;SDS011;55785;47.946;20.540;2024-01-30T03:20:15;3.63;;;2.43;;
67585;SDS011;55785;47.946;20.540;2024-01-30T03:22:41;5.67;;;3.47;;
67585;SDS011;55785;47.946;20.540;2024-01-30T03:25:06;2.70;;;1.70;;
67585;SDS011;55785;47.946;20.540;2024-01-30T03:27:32;18.93;;;8.00;;
67585;SDS011;55785;47.946;20.540;2024-01-30T03:29:57;17.53;;;9.03;;
67585;SDS011;55785;47.946;20.540;2024-01-30T03:32:22;17.10;;;5.23;;
67585;SDS011;55785;47.946;20.540;2024-01-30T03:34:48;7.67;;;2.17;;
67585;SDS011;55785;47.946;20.540;2024-01-30T03:37:13;14.97;;;5.77;;
67585;SDS011;55785;47.946;20.540;2024-01-30T03:39:38;22.87;;;8.27;;
67585;SDS011;55785;47.946;20.540;2024-01-30T03:42:04;10.57;;;3.73;;
67585;SDS011;55785;47.946;20.540;2024-01-30T03:44:29;13.97;;;5.50;;
67585;SDS011;55785;47.946;20.540;2024-01-30T03:46:54;10.40;;;5.83;;
67585;SDS011;55785;47.946;20.540;2024-01-30T03:49:20;15.63;;;6.13;;
67585;SDS011;55785;47.946;20.540;2024-01-30T03:51:45;10.43;;;6.30;;
67585;SDS011;55785;47.946;20.540;2024-01-30T03:54:10;7.40;;;2.70;;
67585;SDS011;55785;47.946;20.540;2024-01-30T03:56:36;3.90;;;2.40;;
67585;SDS011;55785;47.946;20.540;2024-01-30T03:59:01;7.50;;;2.87;;
67585;SDS011;55785;47.946;20.540;2024-01-30T04:01:26;11.17;;;3.77;;
67585;SDS011;55785;47.946;20.540;2024-01-30T04:03:52;9.87;;;6.00;;
67585;SDS011;55785;47.946;20.540;2024-01-30T04:06:17;10.40;;;5.93;;
67585;SDS011;55785;47.946;20.540;2024-01-30T04:08:42;15.83;;;8.57;;
67585;SDS011;55785;47.946;20.540;2024-01-30T04:11:08;7.47;;;4.57;;
67585;SDS011;55785;47.946;20.540;2024-01-30T04:13:33;11.07;;;5.27;;
67585;SDS011;55785;47.946;20.540;2024-01-30T04:16:02;5.63;;;3.43;;
67585;SDS011;55785;47.946;20.540;2024-01-30T04:18:27;5.93;;;2.40;;
67585;SDS011;55785;47.946;20.540;2024-01-30T04:20:53;1.27;;;1.17;;
67585;SDS011;55785;47.946;20.540;2024-01-30T04:23:19;2.07;;;1.87;;
67585;SDS011;55785;47.946;20.540;2024-01-30T04:25:44;4.60;;;2.90;;
67585;SDS011;55785;47.946;20.540;2024-01-30T04:28:10;7.73;;;4.97;;
67585;SDS011;55785;47.946;20.540;2024-01-30T04:30:35;9.47;;;5.37;;
67585;SDS011;55785;47.946;20.540;2024-01-30T04:33:00;11.50;;;5.63;;
67585;SDS011;55785;47.946;20.540;2024-01-30T04:35:26;19.80;;;5.17;;
67585;SDS011;55785;47.946;20.540;2024-01-30T04:37:54;3.53;;;2.27;;
67585;SDS011;55785;47.946;20.540;2024-01-30T04:40:20;4.13;;;2.53;;
67585;SDS011;55785;47.946;20.540;2024-01-30T04:42:46;6.60;;;3.63;;
67585;SDS011;55785;47.946;20.540;2024-01-30T04:45:11;2.37;;;1.50;;
67585;SDS011;55785;47.946;20.540;2024-01-30T04:47:37;4.47;;;3.00;;
67585;SDS011;55785;47.946;20.540;2024-01-30T04:50:02;4.37;;;3.30;;
67585;SDS011;55785;47.946;20.540;2024-01-30T04:52:27;7.37;;;4.73;;
67585;SDS011;55785;47.946;20.540;2024-01-30T04:54:53;5.60;;;3.27;;
67585;SDS011;55785;47.946;20.540;2024-01-30T04:57:18;3.03;;;2.53;;
67585;SDS011;55785;47.946;20.540;2024-01-30T04:59:43;3.93;;;3.03;;
67585;SDS011;55785;47.946;20.540;2024-01-30T05:02:09;1.97;;;1.77;;
67585;SDS011;55785;47.946;20.540;2024-01-30T05:04:34;1.67;;;1.13;;
67585;SDS011;55785;47.946;20.540;2024-01-30T05:06:59;3.93;;;2.73;;
67585;SDS011;55785;47.946;20.540;2024-01-30T05:09:25;6.30;;;3.67;;
67585;SDS011;55785;47.946;20.540;2024-01-30T05:11:50;13.63;;;7.10;;
67585;SDS011;55785;47.946;20.540;2024-01-30T05:14:15;9.73;;;7.63;;
67585;SDS011;55785;47.946;20.540;2024-01-30T05:16:41;32.83;;;14.20;;
67585;SDS011;55785;47.946;20.540;2024-01-30T05:19:06;23.57;;;9.10;;
67585;SDS011;55785;47.946;20.540;2024-01-30T05:21:31;44.30;;;20.07;;
67585;SDS011;55785;47.946;20.540;2024-01-30T05:23:57;24.43;;;11.97;;
67585;SDS011;55785;47.946;20.540;2024-01-30T05:26:22;28.87;;;13.13;;
67585;SDS011;55785;47.946;20.540;2024-01-30T05:28:47;7.87;;;5.27;;
67585;SDS011;55785;47.946;20.540;2024-01-30T05:31:13;12.73;;;8.00;;
67585;SDS011;55785;47.946;20.540;2024-01-30T05:33:38;4.60;;;2.63;;
67585;SDS011;55785;47.946;20.540;2024-01-30T05:36:03;4.03;;;2.77;;
67585;SDS011;55785;47.946;20.540;2024-01-30T05:38:29;4.63;;;2.87;;
67585;SDS011;55785;47.946;20.540;2024-01-30T05:40:54;1.53;;;1.37;;
67585;SDS011;55785;47.946;20.540;2024-01-30T05:43:20;3.03;;;1.40;;
67585;SDS011;55785;47.946;20.540;2024-01-30T05:45:45;1.20;;;1.03;;
67585;SDS011;55785;47.946;20.540;2024-01-30T05:48:10;1.67;;;1.53;;
67585;SDS011;55785;47.946;20.540;2024-01-30T05:50:37;2.03;;;1.47;;
67585;SDS011;55785;47.946;20.540;2024-01-30T05:53:02;2.53;;;1.47;;
67585;SDS011;55785;47.946;20.540;2024-01-30T05:55:28;4.23;;;2.87;;
67585;SDS011;55785;47.946;20.540;2024-01-30T05:57:53;5.77;;;3.50;;
67585;SDS011;55785;47.946;20.540;2024-01-30T06:00:18;5.50;;;3.67;;
67585;SDS011;55785;47.946;20.540;2024-01-30T06:02:44;3.57;;;2.50;;
67585;SDS011;55785;47.946;20.540;2024-01-30T06:05:09;10.80;;;4.93;;
67585;SDS011;55785;47.946;20.540;2024-01-30T06:07:34;7.23;;;2.57;;
67585;SDS011;55785;47.946;20.540;2024-01-30T06:10:00;3.17;;;1.53;;
67585;SDS011;55785;47.946;20.540;2024-01-30T06:12:25;2.23;;;1.67;;
67585;SDS011;55785;47.946;20.540;2024-01-30T06:14:51;2.47;;;2.03;;
67585;SDS011;55785;47.946;20.540;2024-01-30T06:17:16;3.37;;;2.03;;
67585;SDS011;55785;47.946;20.540;2024-01-30T06:19:41;2.63;;;2.07;;
67585;SDS011;55785;47.946;20.540;2024-01-30T06:22:06;1.27;;;1.17;;
67585;SDS011;55785;47.946;20.540;2024-01-30T06:24:32;2.50;;;1.90;;
67585;SDS011;55785;47.946;20.540;2024-01-30T06:26:57;1.90;;;1.77;;
67585;SDS011;55785;47.946;20.540;2024-01-30T06:29:22;2.00;;;1.73;;
67585;SDS011;55785;47.946;20.540;2024-01-30T06:31:48;1.97;;;1.43;;
67585;SDS011;55785;47.946;20.540;2024-01-30T06:34:13;3.40;;;1.80;;
67585;SDS011;55785;47.946;20.540;2024-01-30T06:36:39;3.33;;;2.80;;
67585;SDS011;55785;47.946;20.540;2024-01-30T06:39:04;4.37;;;3.53;;
67585;SDS011;55785;47.946;20.540;2024-01-30T06:41:29;2.83;;;2.27;;
67585;SDS011;55785;47.946;20.540;2024-01-30T06:43:55;4.33;;;3.50;;
67585;SDS011;55785;47.946;20.540;2024-01-30T06:46:21;4.27;;;2.90;;
67585;SDS011;55785;47.946;20.540;2024-01-30T06:48:46;9.53;;;4.40;;
67585;SDS011;55785;47.946;20.540;2024-01-30T06:51:11;4.43;;;1.93;;
67585;SDS011;55785;47.946;20.540;2024-01-30T06:53:37;4.93;;;2.70;;
67585;SDS011;55785;47.946;20.540;2024-01-30T06:56:02;7.37;;;3.93;;
67585;SDS011;55785;47.946;20.540;2024-01-30T06:58:28;8.17;;;4.27;;
67585;SDS011;55785;47.946;20.540;2024-01-30T07:00:54;5.50;;;2.37;;
67585;SDS011;55785;47.946;20.540;2024-01-30T07:03:19;4.17;;;2.77;;
67585;SDS011;55785;47.946;20.540;2024-01-30T07:05:45;6.23;;;3.83;;
67585;SDS011;55785;47.946;20.540;2024-01-30T07:08:10;15.00;;;5.90;;
67585;SDS011;55785;47.946;20.540;2024-01-30T07:10:35;6.83;;;4.73;;
67585;SDS011;55785;47.946;20.540;2024-01-30T07:13:01;5.03;;;3.57;;
67585;SDS011;55785;47.946;20.540;2024-01-30T07:15:26;5.60;;;3.63;;
67585;SDS011;55785;47.946;20.540;2024-01-30T07:17:51;3.00;;;2.53;;
67585;SDS011;55785;47.946;20.540;2024-01-30T07:20:17;4.40;;;2.40;;
67585;SDS011;55785;47.946;20.540;2024-01-30T07:22:43;2.10;;;1.53;;
67585;SDS011;55785;47.946;20.540;2024-01-30T07:25:08;3.47;;;2.47;;
67585;SDS011;55785;47.946;20.540;2024-01-30T07:27:33;7.83;;;2.00;;
67585;SDS011;55785;47.946;20.540;2024-01-30T07:29:59;1.93;;;1.50;;
67585;SDS011;55785;47.946;20.540;2024-01-30T07:32:24;1.50;;;1.40;;
67585;SDS011;55785;47.946;20.540;2024-01-30T07:34:49;3.60;;;2.60;;
67585;SDS011;55785;47.946;20.540;2024-01-30T07:37:15;2.97;;;1.77;;
67585;SDS011;55785;47.946;20.540;2024-01-30T07:39:40;9.13;;;4.03;;
67585;SDS011;55785;47.946;20.540;2024-01-30T07:42:05;5.13;;;2.10;;
67585;SDS011;55785;47.946;20.540;2024-01-30T07:44:31;1.53;;;1.43;;
67585;SDS011;55785;47.946;20.540;2024-01-30T07:46:56;3.63;;;1.90;;
67585;SDS011;55785;47.946;20.540;2024-01-30T07:49:21;1.77;;;1.53;;
67585;SDS011;55785;47.946;20.540;2024-01-30T07:51:47;3.83;;;2.20;;
67585;SDS011;55785;47.946;20.540;2024-01-30T07:54:12;1.37;;;1.27;;
67585;SDS011;55785;47.946;20.540;2024-01-30T07:56:37;4.50;;;2.00;;
67585;SDS011;55785;47.946;20.540;2024-01-30T07:59:03;5.10;;;2.17;;
67585;SDS011;55785;47.946;20.540;2024-01-30T08:01:28;2.47;;;1.77;;
67585;SDS011;55785;47.946;20.540;2024-01-30T08:03:54;3.20;;;2.70;;
67585;SDS011;55785;47.946;20.540;2024-01-30T08:06:19;1.97;;;1.60;;
67585;SDS011;55785;47.946;20.540;2024-01-30T08:08:44;4.97;;;2.40;;
67585;SDS011;55785;47.946;20.540;2024-01-30T08:11:10;4.57;;;2.37;;
67585;SDS011;55785;47.946;20.540;2024-01-30T08:13:35;4.03;;;2.00;;
67585;SDS011;55785;47.946;20.540;2024-01-30T08:16:00;2.33;;;1.83;;
67585;SDS011;55785;47.946;20.540;2024-01-30T08:18:26;1.70;;;1.60;;
67585;SDS011;55785;47.946;20.540;2024-01-30T08:20:51;4.13;;;1.93;;
67585;SDS011;55785;47.946;20.540;2024-01-30T08:23:16;2.50;;;1.63;;
67585;SDS011;55785;47.946;20.540;2024-01-30T08:25:42;1.50;;;1.40;;
67585;SDS011;55785;47.946;20.540;2024-01-30T08:28:07;2.67;;;1.63;;
67585;SDS011;55785;47.946;20.540;2024-01-30T08:30:32;2.87;;;1.73;;
67585;SDS011;55785;47.946;20.540;2024-01-30T08:32:58;4.10;;;1.97;;
67585;SDS011;55785;47.946;20.540;2024-01-30T08:35:23;2.90;;;1.63;;
67585;SDS011;55785;47.946;20.540;2024-01-30T08:37:48;3.07;;;1.60;;
67585;SDS011;55785;47.946;20.540;2024-01-30T08:40:14;2.20;;;1.67;;
67585;SDS011;55785;47.946;20.540;2024-01-30T08:42:39;2.10;;;1.37;;
67585;SDS011;55785;47.946;20.540;2024-01-30T08:45:04;4.23;;;2.13;;
67585;SDS011;55785;47.946;20.540;2024-01-30T08:47:30;6.70;;;2.70;;
67585;SDS011;55785;47.946;20.540;2024-01-30T08:49:55;2.27;;;1.60;;
67585;SDS011;55785;47.946;20.540;2024-01-30T08:52:21;3.17;;;2.17;;
67585;SDS011;55785;47.946;20.540;2024-01-30T08:54:46;2.43;;;1.70;;
67585;SDS011;55785;47.946;20.540;2024-01-30T08:57:11;4.03;;;2.10;;
67585;SDS011;55785;47.946;20.540;2024-01-30T08:59:37;3.20;;;2.10;;
67585;SDS011;55785;47.946;20.540;2024-01-30T09:02:02;7.13;;;2.27;;
67585;SDS011;55785;47.946;20.540;2024-01-30T09:04:28;4.07;;;2.63;;
67585;SDS011;55785;47.946;20.540;2024-01-30T09:06:53;4.23;;;3.03;;
67585;SDS011;55785;47.946;20.540;2024-01-30T09:09:18;3.13;;;2.70;;
67585;SDS011;55785;47.946;20.540;2024-01-30T09:11:44;5.47;;;2.90;;
67585;SDS011;55785;47.946;20.540;2024-01-30T09:14:09;6.43;;;4.13;;
67585;SDS011;55785;47.946;20.540;2024-01-30T09:16:34;5.33;;;2.67;;
67585;SDS011;55785;47.946;20.540;2024-01-30T09:19:00;4.83;;;3.57;;
67585;SDS011;55785;47.946;20.540;2024-01-30T09:21:25;7.03;;;3.60;;
67585;SDS011;55785;47.946;20.540;2024-01-30T09:23:52;8.63;;;3.63;;
67585;SDS011;55785;47.946;20.540;2024-01-30T09:26:19;4.27;;;2.87;;
67585;SDS011;55785;47.946;20.540;2024-01-30T09:28:44;5.37;;;3.17;;
67585;SDS011;55785;47.946;20.540;2024-01-30T09:31:10;5.77;;;3.10;;
67585;SDS011;55785;47.946;20.540;2024-01-30T09:33:35;6.40;;;3.83;;
67585;SDS011;55785;47.946;20.540;2024-01-30T09:36:01;4.73;;;2.77;;
67585;SDS011;55785;47.946;20.540;2024-01-30T09:38:26;5.10;;;3.00;;
67585;SDS011;55785;47.946;20.540;2024-01-30T09:40:53;5.90;;;3.77;;
67585;SDS011;55785;47.946;20.540;2024-01-30T09:43:19;4.33;;;2.60;;
67585;SDS011;55785;47.946;20.540;2024-01-30T09:45:48;5.23;;;2.53;;
67585;SDS011;55785;47.946;20.540;2024-01-30T09:48:15;5.17;;;2.37;;
67585;SDS011;55785;47.946;20.540;2024-01-30T09:50:40;4.53;;;2.43;;
67585;SDS011;55785;47.946;20.540;2024-01-30T09:53:06;3.23;;;2.23;;
67585;SDS011;55785;47.946;20.540;2024-01-30T09:55:33;7.67;;;4.03;;
67585;SDS011;55785;47.946;20.540;2024-01-30T09:58:00;5.57;;;2.90;;
67585;SDS011;55785;47.946;20.540;2024-01-30T10:00:26;8.57;;;4.70;;
67585;SDS011;55785;47.946;20.540;2024-01-30T10:02:51;10.43;;;3.63;;
67585;SDS011;55785;47.946;20.540;2024-01-30T10:05:17;5.83;;;3.83;;
67585;SDS011;55785;47.946;20.540;2024-01-30T10:07:53;8.83;;;4.50;;
67585;SDS011;55785;47.946;20.540;2024-01-30T10:10:21;7.38;;;3.97;;
67585;SDS011;55785;47.946;20.540;2024-01-30T10:12:47;6.23;;;3.40;;
67585;SDS011;55785;47.946;20.540;2024-01-30T10:15:12;7.37;;;3.57;;
67585;SDS011;55785;47.946;20.540;2024-01-30T10:17:39;7.47;;;3.40;;
67585;SDS011;55785;47.946;20.540;2024-01-30T10:20:04;5.10;;;3.13;;
67585;SDS011;55785;47.946;20.540;2024-01-30T10:22:30;5.90;;;3.00;;
67585;SDS011;55785;47.946;20.540;2024-01-30T10:24:55;4.17;;;2.80;;
67585;SDS011;55785;47.946;20.540;2024-01-30T10:27:27;7.37;;;4.20;;
67585;SDS011;55785;47.946;20.540;2024-01-30T10:29:52;6.87;;;4.20;;
67585;SDS011;55785;47.946;20.540;2024-01-30T10:32:19;10.57;;;4.83;;
67585;SDS011;55785;47.946;20.540;2024-01-30T10:34:44;8.33;;;4.00;;
67585;SDS011;55785;47.946;20.540;2024-01-30T10:37:10;5.07;;;2.80;;
67585;SDS011;55785;47.946;20.540;2024-01-30T10:39:37;7.30;;;3.10;;
67585;SDS011;55785;47.946;20.540;2024-01-30T10:42:09;9.13;;;3.53;;
67585;SDS011;55785;47.946;20.540;2024-01-30T10:44:39;7.00;;;3.83;;
67585;SDS011;55785;47.946;20.540;2024-01-30T10:47:27;4.43;;;2.93;;
67585;SDS011;55785;47.946;20.540;2024-01-30T10:49:54;5.90;;;3.70;;
67585;SDS011;55785;47.946;20.540;2024-01-30T10:52:19;7.03;;;3.83;;
67585;SDS011;55785;47.946;20.540;2024-01-30T10:54:45;6.17;;;3.73;;
67585;SDS011;55785;47.946;20.540;2024-01-30T10:57:12;8.03;;;3.90;;
67585;SDS011;55785;47.946;20.540;2024-01-30T10:59:40;7.97;;;3.90;;
67585;SDS011;55785;47.946;20.540;2024-01-30T11:02:06;9.33;;;3.97;;
67585;SDS011;55785;47.946;20.540;2024-01-30T11:04:35;8.43;;;3.93;;
67585;SDS011;55785;47.946;20.540;2024-01-30T11:07:02;7.60;;;4.10;;
67585;SDS011;55785;47.946;20.540;2024-01-30T11:09:28;6.57;;;3.60;;
67585;SDS011;55785;47.946;20.540;2024-01-30T11:11:57;6.67;;;3.83;;
67585;SDS011;55785;47.946;20.540;2024-01-30T11:14:24;8.83;;;3.87;;
67585;SDS011;55785;47.946;20.540;2024-01-30T11:16:49;8.17;;;4.67;;
67585;SDS011;55785;47.946;20.540;2024-01-30T11:19:15;7.77;;;4.43;;
67585;SDS011;55785;47.946;20.540;2024-01-30T11:21:43;8.70;;;4.17;;
67585;SDS011;55785;47.946;20.540;2024-01-30T11:24:08;8.93;;;4.77;;
67585;SDS011;55785;47.946;20.540;2024-01-30T11:26:34;9.43;;;4.27;;
67585;SDS011;55785;47.946;20.540;2024-01-30T11:29:02;8.97;;;4.97;;
67585;SDS011;55785;47.946;20.540;2024-01-30T11:31:28;11.17;;;4.50;;
67585;SDS011;55785;47.946;20.540;2024-01-30T11:33:53;11.23;;;5.13;;
67585;SDS011;55785;47.946;20.540;2024-01-30T11:36:21;11.50;;;4.87;;
67585;SDS011;55785;47.946;20.540;2024-01-30T11:38:50;11.07;;;5.13;;
67585;SDS011;55785;47.946;20.540;2024-01-30T11:41:15;10.48;;;5.43;;
67585;SDS011;55785;47.946;20.540;2024-01-30T11:43:41;15.70;;;6.18;;
67585;SDS011;55785;47.946;20.540;2024-01-30T11:46:06;7.82;;;4.50;;
67585;SDS011;55785;47.946;20.540;2024-01-30T11:48:32;6.27;;;4.00;;
67585;SDS011;55785;47.946;20.540;2024-01-30T11:50:57;8.02;;;4.47;;
67585;SDS011;55785;47.946;20.540;2024-01-30T11:53:23;12.27;;;5.13;;
67585;SDS011;55785;47.946;20.540;2024-01-30T11:55:51;10.52;;;4.65;;
67585;SDS011;55785;47.946;20.540;2024-01-30T11:58:16;8.97;;;4.53;;
67585;SDS011;55785;47.946;20.540;2024-01-30T12:00:42;7.37;;;4.47;;
67585;SDS011;55785;47.946;20.540;2024-01-30T12:03:07;10.00;;;4.30;;
67585;SDS011;55785;47.946;20.540;2024-01-30T12:05:32;7.00;;;4.15;;
67585;SDS011;55785;47.946;20.540;2024-01-30T12:07:58;6.40;;;3.72;;
67585;SDS011;55785;47.946;20.540;2024-01-30T12:10:23;8.90;;;4.73;;
67585;SDS011;55785;47.946;20.540;2024-01-30T12:12:49;7.83;;;3.80;;
67585;SDS011;55785;47.946;20.540;2024-01-30T12:15:15;5.73;;;3.63;;
67585;SDS011;55785;47.946;20.540;2024-01-30T12:17:41;12.13;;;4.80;;
67585;SDS011;55785;47.946;20.540;2024-01-30T12:20:10;5.95;;;3.75;;
67585;SDS011;55785;47.946;20.540;2024-01-30T12:22:38;31.67;;;9.65;;
67585;SDS011;55785;47.946;20.540;2024-01-30T12:25:08;17.25;;;6.22;;
67585;SDS011;55785;47.946;20.540;2024-01-30T12:27:37;8.55;;;4.55;;
67585;SDS011;55785;47.946;20.540;2024-01-30T12:30:21;11.30;;;4.22;;
67585;SDS011;55785;47.946;20.540;2024-01-30T12:32:48;5.55;;;3.70;;
67585;SDS011;55785;47.946;20.540;2024-01-30T12:35:15;7.60;;;3.83;;
67585;SDS011;55785;47.946;20.540;2024-01-30T12:37:45;6.55;;;3.97;;
67585;SDS011;55785;47.946;20.540;2024-01-30T12:40:11;6.05;;;3.22;;
67585;SDS011;55785;47.946;20.540;2024-01-30T12:42:38;7.27;;;4.43;;
67585;SDS011;55785;47.946;20.540;2024-01-30T12:45:03;8.17;;;4.10;;
67585;SDS011;55785;47.946;20.540;2024-01-30T12:47:29;10.17;;;4.97;;
67585;SDS011;55785;47.946;20.540;2024-01-30T12:49:55;6.23;;;3.40;;
67585;SDS011;55785;47.946;20.540;2024-01-30T12:52:21;4.63;;;2.57;;
67585;SDS011;55785;47.946;20.540;2024-01-30T12:54:47;9.67;;;3.47;;
67585;SDS011;55785;47.946;20.540;2024-01-30T12:57:13;5.87;;;3.30;;
67585;SDS011;55785;47.946;20.540;2024-01-30T12:59:38;4.23;;;3.00;;
67585;SDS011;55785;47.946;20.540;2024-01-30T13:02:03;6.97;;;3.63;;
67585;SDS011;55785;47.946;20.540;2024-01-30T13:04:29;6.47;;;3.17;;
67585;SDS011;55785;47.946;20.540;2024-01-30T13:06:54;5.27;;;2.77;;
67585;SDS011;55785;47.946;20.540;2024-01-30T13:09:20;4.77;;;3.07;;
67585;SDS011;55785;47.946;20.540;2024-01-30T13:11:45;5.53;;;3.10;;
67585;SDS011;55785;47.946;20.540;2024-01-30T13:14:11;5.37;;;3.43;;
67585;SDS011;55785;47.946;20.540;2024-01-30T13:16:36;5.37;;;3.10;;
67585;SDS011;55785;47.946;20.540;2024-01-30T13:19:02;4.93;;;3.40;;
67585;SDS011;55785;47.946;20.540;2024-01-30T13:21:28;7.90;;;4.43;;
67585;SDS011;55785;47.946;20.540;2024-01-30T13:23:53;6.93;;;4.10;;
67585;SDS011;55785;47.946;20.540;2024-01-30T13:26:19;7.90;;;4.47;;
67585;SDS011;55785;47.946;20.540;2024-01-30T13:28:45;5.07;;;3.33;;
67585;SDS011;55785;47.946;20.540;2024-01-30T13:31:10;9.73;;;4.10;;
67585;SDS011;55785;47.946;20.540;2024-01-30T13:33:36;6.57;;;3.90;;
67585;SDS011;55785;47.946;20.540;2024-01-30T13:36:01;6.13;;;3.93;;
67585;SDS011;55785;47.946;20.540;2024-01-30T13:38:27;7.88;;;3.92;;
67585;SDS011;55785;47.946;20.540;2024-01-30T13:40:52;11.50;;;6.67;;
67585;SDS011;55785;47.946;20.540;2024-01-30T13:43:17;9.97;;;4.93;;
67585;SDS011;55785;47.946;20.540;2024-01-30T13:45:43;8.20;;;3.87;;
67585;SDS011;55785;47.946;20.540;2024-01-30T13:48:08;6.47;;;3.70;;
67585;SDS011;55785;47.946;20.540;2024-01-30T13:50:34;6.63;;;3.73;;
67585;SDS011;55785;47.946;20.540;2024-01-30T13:52:59;9.17;;;3.83;;
67585;SDS011;55785;47.946;20.540;2024-01-30T13:55:24;6.00;;;3.37;;
67585;SDS011;55785;47.946;20.540;2024-01-30T13:57:50;11.40;;;5.63;;
67585;SDS011;55785;47.946;20.540;2024-01-30T14:00:15;13.33;;;6.80;;
67585;SDS011;55785;47.946;20.540;2024-01-30T14:02:41;9.53;;;5.77;;
67585;SDS011;55785;47.946;20.540;2024-01-30T14:05:07;8.93;;;5.00;;
67585;SDS011;55785;47.946;20.540;2024-01-30T14:07:33;9.07;;;4.47;;
67585;SDS011;55785;47.946;20.540;2024-01-30T14:10:00;6.70;;;3.80;;
67585;SDS011;55785;47.946;20.540;2024-01-30T14:12:26;7.47;;;3.90;;
67585;SDS011;55785;47.946;20.540;2024-01-30T14:14:51;8.40;;;4.90;;
67585;SDS011;55785;47.946;20.540;2024-01-30T14:17:16;8.10;;;4.90;;
67585;SDS011;55785;47.946;20.540;2024-01-30T14:19:42;5.97;;;3.47;;
67585;SDS011;55785;47.946;20.540;2024-01-30T14:22:07;6.20;;;4.20;;
67585;SDS011;55785;47.946;20.540;2024-01-30T14:24:32;7.97;;;4.40;;